sensor_id;sensor_type;location;lat;lon;timestamp;temperature;humidity
2893;DHT22;1456;51.840;12.184;2023-03-22T00:01:52;9.20;99.90
2893;DHT22;1456;51.840;12.184;2023-03-22T00:04:18;9.20;99.90
2893;DHT22;1456;51.840;12.184;2023-03-22T00:06:48;9.20;99.90
2893;DHT22;1456;51.840;12.184;2023-03-22T00:09:14;9.20;99.90
2893;DHT22;1456;51.840;12.184;2023-03-22T00:11:41;9.20;99.90
2893;DHT22;1456;51.840;12.184;2023-03-22T00:14:08;9.30;99.90
2893;DHT22;1456;51.840;12.184;2023-03-22T00:16:34;9.40;99.90
2893;DHT22;1456;51.840;12.184;2023-03-22T00:18:59;9.50;99.90
2893;DHT22;1456;51.840;12.184;2023-03-22T00:21:25;9.60;99.90
2893;DHT22;1456;51.840;12.184;2023-03-22T00:23:52;9.70;99.90
2893;DHT22;1456;51.840;12.184;2023-03-22T00:26:19;9.80;99.90
2893;DHT22;1456;51.840;12.184;2023-03-22T00:28:45;9.80;99.90
2893;DHT22;1456;51.840;12.184;2023-03-22T00:31:10;9.80;99.90
2893;DHT22;1456;51.840;12.184;2023-03-22T00:33:36;9.70;99.90
2893;DHT22;1456;51.840;12.184;2023-03-22T00:36:04;9.60;99.90
2893;DHT22;1456;51.840;12.184;2023-03-22T00:38:30;9.50;99.90
2893;DHT22;1456;51.840;12.184;2023-03-22T00:41:09;9.50;99.90
2893;DHT22;1456;51.840;12.184;2023-03-22T00:46:06;9.40;99.90
2893;DHT22;1456;51.840;12.184;2023-03-22T00:51:01;9.30;99.90
2893;DHT22;1456;51.840;12.184;2023-03-22T00:53:27;9.30;99.90
2893;DHT22;1456;51.840;12.184;2023-03-22T00:55:58;9.30;99.90
2893;DHT22;1456;51.840;12.184;2023-03-22T00:58:23;9.20;99.90
2893;DHT22;1456;51.840;12.184;2023-03-22T01:00:49;9.10;99.90
2893;DHT22;1456;51.840;12.184;2023-03-22T01:03:15;9.10;99.90
2893;DHT22;1456;51.840;12.184;2023-03-22T01:05:43;9.00;99.90
2893;DHT22;1456;51.840;12.184;2023-03-22T01:08:09;8.90;99.90
2893;DHT22;1456;51.840;12.184;2023-03-22T01:10:38;8.90;99.90
2893;DHT22;1456;51.840;12.184;2023-03-22T01:13:04;8.90;99.90
2893;DHT22;1456;51.840;12.184;2023-03-22T01:15:32;8.90;99.90
2893;DHT22;1456;51.840;12.184;2023-03-22T01:17:58;8.90;99.90
2893;DHT22;1456;51.840;12.184;2023-03-22T01:20:24;8.90;99.90
2893;DHT22;1456;51.840;12.184;2023-03-22T01:22:51;9.00;99.90
2893;DHT22;1456;51.840;12.184;2023-03-22T01:25:17;9.10;99.90
2893;DHT22;1456;51.840;12.184;2023-03-22T01:27:44;9.20;99.90
2893;DHT22;1456;51.840;12.184;2023-03-22T01:30:09;9.40;99.90
2893;DHT22;1456;51.840;12.184;2023-03-22T01:32:35;9.50;99.90
2893;DHT22;1456;51.840;12.184;2023-03-22T01:35:02;9.50;99.90
2893;DHT22;1456;51.840;12.184;2023-03-22T01:37:27;9.50;99.90
2893;DHT22;1456;51.840;12.184;2023-03-22T01:39:54;9.40;99.90
2893;DHT22;1456;51.840;12.184;2023-03-22T01:42:21;9.40;99.90
2893;DHT22;1456;51.840;12.184;2023-03-22T01:47:32;9.40;99.90
2893;DHT22;1456;51.840;12.184;2023-03-22T01:49:58;9.40;99.90
2893;DHT22;1456;51.840;12.184;2023-03-22T01:52:25;9.50;99.90
2893;DHT22;1456;51.840;12.184;2023-03-22T01:54:52;9.40;99.90
2893;DHT22;1456;51.840;12.184;2023-03-22T01:57:25;9.40;99.90
2893;DHT22;1456;51.840;12.184;2023-03-22T01:59:51;9.50;99.90
2893;DHT22;1456;51.840;12.184;2023-03-22T02:02:18;9.50;99.90
2893;DHT22;1456;51.840;12.184;2023-03-22T02:04:43;9.50;99.90
2893;DHT22;1456;51.840;12.184;2023-03-22T02:07:12;9.50;99.90
2893;DHT22;1456;51.840;12.184;2023-03-22T02:09:40;9.40;99.90
2893;DHT22;1456;51.840;12.184;2023-03-22T02:15:09;9.20;99.90
2893;DHT22;1456;51.840;12.184;2023-03-22T02:20:33;9.10;99.90
2893;DHT22;1456;51.840;12.184;2023-03-22T02:25:55;9.20;99.90
2893;DHT22;1456;51.840;12.184;2023-03-22T02:41:16;9.10;99.90
2893;DHT22;1456;51.840;12.184;2023-03-22T02:46:17;9.10;99.90
2893;DHT22;1456;51.840;12.184;2023-03-22T02:51:23;9.00;99.90
2893;DHT22;1456;51.840;12.184;2023-03-22T02:53:54;9.00;99.90
2893;DHT22;1456;51.840;12.184;2023-03-22T02:56:26;9.00;99.90
2893;DHT22;1456;51.840;12.184;2023-03-22T02:58:55;8.90;99.90
2893;DHT22;1456;51.840;12.184;2023-03-22T03:01:24;8.90;99.90
2893;DHT22;1456;51.840;12.184;2023-03-22T03:03:51;8.90;99.90
2893;DHT22;1456;51.840;12.184;2023-03-22T03:06:20;8.90;99.90
2893;DHT22;1456;51.840;12.184;2023-03-22T03:08:48;8.90;99.90
2893;DHT22;1456;51.840;12.184;2023-03-22T03:11:15;8.90;99.90
2893;DHT22;1456;51.840;12.184;2023-03-22T03:13:42;8.90;99.90
2893;DHT22;1456;51.840;12.184;2023-03-22T03:16:09;8.90;99.90
2893;DHT22;1456;51.840;12.184;2023-03-22T03:18:58;8.90;99.90
2893;DHT22;1456;51.840;12.184;2023-03-22T03:29:08;9.10;99.90
2893;DHT22;1456;51.840;12.184;2023-03-22T03:34:12;9.20;99.90
2893;DHT22;1456;51.840;12.184;2023-03-22T03:36:43;9.20;99.90
2893;DHT22;1456;51.840;12.184;2023-03-22T03:39:11;9.20;99.90
2893;DHT22;1456;51.840;12.184;2023-03-22T03:41:39;9.20;99.90
2893;DHT22;1456;51.840;12.184;2023-03-22T03:44:07;9.10;99.90
2893;DHT22;1456;51.840;12.184;2023-03-22T03:46:33;9.00;99.90
2893;DHT22;1456;51.840;12.184;2023-03-22T03:49:00;8.90;99.90
2893;DHT22;1456;51.840;12.184;2023-03-22T03:51:27;8.90;99.90
2893;DHT22;1456;51.840;12.184;2023-03-22T03:53:53;8.80;99.90
2893;DHT22;1456;51.840;12.184;2023-03-22T03:56:19;8.70;99.90
2893;DHT22;1456;51.840;12.184;2023-03-22T03:58:45;8.70;99.90
2893;DHT22;1456;51.840;12.184;2023-03-22T04:01:11;8.70;99.90
2893;DHT22;1456;51.840;12.184;2023-03-22T04:03:36;8.70;99.90
2893;DHT22;1456;51.840;12.184;2023-03-22T04:06:02;8.80;99.90
2893;DHT22;1456;51.840;12.184;2023-03-22T04:08:28;8.90;99.90
2893;DHT22;1456;51.840;12.184;2023-03-22T04:10:53;9.00;99.90
2893;DHT22;1456;51.840;12.184;2023-03-22T04:13:20;9.00;99.90
2893;DHT22;1456;51.840;12.184;2023-03-22T04:15:51;9.10;99.90
2893;DHT22;1456;51.840;12.184;2023-03-22T04:18:17;9.20;99.90
2893;DHT22;1456;51.840;12.184;2023-03-22T04:20:44;9.20;99.90
2893;DHT22;1456;51.840;12.184;2023-03-22T04:23:10;9.20;99.90
2893;DHT22;1456;51.840;12.184;2023-03-22T04:25:36;9.20;99.90
2893;DHT22;1456;51.840;12.184;2023-03-22T04:28:06;9.20;99.90
2893;DHT22;1456;51.840;12.184;2023-03-22T04:30:31;9.30;99.90
2893;DHT22;1456;51.840;12.184;2023-03-22T04:33:01;9.30;99.90
2893;DHT22;1456;51.840;12.184;2023-03-22T04:35:33;9.30;99.90
2893;DHT22;1456;51.840;12.184;2023-03-22T04:37:59;9.30;99.90
2893;DHT22;1456;51.840;12.184;2023-03-22T04:40:26;9.40;99.90
2893;DHT22;1456;51.840;12.184;2023-03-22T04:42:53;9.40;99.90
2893;DHT22;1456;51.840;12.184;2023-03-22T04:45:21;9.40;99.90
2893;DHT22;1456;51.840;12.184;2023-03-22T04:47:47;9.30;99.90
2893;DHT22;1456;51.840;12.184;2023-03-22T04:50:13;9.30;99.90
2893;DHT22;1456;51.840;12.184;2023-03-22T04:52:38;9.20;99.90
2893;DHT22;1456;51.840;12.184;2023-03-22T04:55:04;9.20;99.90
2893;DHT22;1456;51.840;12.184;2023-03-22T04:57:30;9.10;99.90
2893;DHT22;1456;51.840;12.184;2023-03-22T04:59:56;9.10;99.90
2893;DHT22;1456;51.840;12.184;2023-03-22T05:02:21;9.00;99.90
2893;DHT22;1456;51.840;12.184;2023-03-22T05:04:47;9.00;99.90
2893;DHT22;1456;51.840;12.184;2023-03-22T05:07:14;9.00;99.90
2893;DHT22;1456;51.840;12.184;2023-03-22T05:09:39;9.00;99.90
2893;DHT22;1456;51.840;12.184;2023-03-22T05:12:06;8.90;99.90
2893;DHT22;1456;51.840;12.184;2023-03-22T05:14:31;8.90;99.90
2893;DHT22;1456;51.840;12.184;2023-03-22T05:16:57;8.90;99.90
2893;DHT22;1456;51.840;12.184;2023-03-22T05:19:22;8.90;99.90
2893;DHT22;1456;51.840;12.184;2023-03-22T05:21:49;8.90;99.90
2893;DHT22;1456;51.840;12.184;2023-03-22T05:24:22;8.90;99.90
2893;DHT22;1456;51.840;12.184;2023-03-22T05:26:49;8.90;99.90
2893;DHT22;1456;51.840;12.184;2023-03-22T05:29:18;9.00;99.90
2893;DHT22;1456;51.840;12.184;2023-03-22T05:31:43;9.00;99.90
2893;DHT22;1456;51.840;12.184;2023-03-22T05:34:09;9.00;99.90
2893;DHT22;1456;51.840;12.184;2023-03-22T05:36:35;9.10;99.90
2893;DHT22;1456;51.840;12.184;2023-03-22T05:39:01;9.10;99.90
2893;DHT22;1456;51.840;12.184;2023-03-22T05:41:27;9.10;99.90
2893;DHT22;1456;51.840;12.184;2023-03-22T05:43:56;9.10;99.90
2893;DHT22;1456;51.840;12.184;2023-03-22T05:46:22;9.20;99.90
2893;DHT22;1456;51.840;12.184;2023-03-22T05:48:50;9.30;99.90
2893;DHT22;1456;51.840;12.184;2023-03-22T05:51:15;9.40;99.90
2893;DHT22;1456;51.840;12.184;2023-03-22T05:53:44;9.40;99.90
2893;DHT22;1456;51.840;12.184;2023-03-22T05:56:11;9.50;99.90
2893;DHT22;1456;51.840;12.184;2023-03-22T05:58:38;9.60;99.90
2893;DHT22;1456;51.840;12.184;2023-03-22T06:01:09;9.60;99.90
2893;DHT22;1456;51.840;12.184;2023-03-22T06:03:40;9.70;99.90
2893;DHT22;1456;51.840;12.184;2023-03-22T06:06:07;9.70;99.90
2893;DHT22;1456;51.840;12.184;2023-03-22T06:08:38;9.70;99.90
2893;DHT22;1456;51.840;12.184;2023-03-22T06:11:04;9.80;99.90
2893;DHT22;1456;51.840;12.184;2023-03-22T06:13:29;10.00;99.90
2893;DHT22;1456;51.840;12.184;2023-03-22T06:15:57;10.10;99.90
2893;DHT22;1456;51.840;12.184;2023-03-22T06:18:23;10.10;99.90
2893;DHT22;1456;51.840;12.184;2023-03-22T06:20:48;10.10;99.90
2893;DHT22;1456;51.840;12.184;2023-03-22T06:23:14;10.20;99.90
2893;DHT22;1456;51.840;12.184;2023-03-22T06:25:42;10.20;99.90
2893;DHT22;1456;51.840;12.184;2023-03-22T06:28:07;10.20;99.90
2893;DHT22;1456;51.840;12.184;2023-03-22T06:30:33;10.10;99.90
2893;DHT22;1456;51.840;12.184;2023-03-22T06:32:59;10.10;99.90
2893;DHT22;1456;51.840;12.184;2023-03-22T06:35:28;10.20;99.90
2893;DHT22;1456;51.840;12.184;2023-03-22T06:37:54;10.30;99.90
2893;DHT22;1456;51.840;12.184;2023-03-22T06:40:19;10.50;99.90
2893;DHT22;1456;51.840;12.184;2023-03-22T06:42:45;10.60;99.90
2893;DHT22;1456;51.840;12.184;2023-03-22T06:45:11;10.70;99.90
2893;DHT22;1456;51.840;12.184;2023-03-22T06:47:46;10.90;99.90
2893;DHT22;1456;51.840;12.184;2023-03-22T06:50:12;11.10;99.90
2893;DHT22;1456;51.840;12.184;2023-03-22T06:52:39;11.10;99.90
2893;DHT22;1456;51.840;12.184;2023-03-22T06:55:04;11.30;99.90
2893;DHT22;1456;51.840;12.184;2023-03-22T06:57:30;11.40;99.90
2893;DHT22;1456;51.840;12.184;2023-03-22T06:59:56;11.40;99.90
2893;DHT22;1456;51.840;12.184;2023-03-22T07:02:22;11.40;99.90
2893;DHT22;1456;51.840;12.184;2023-03-22T07:04:47;11.40;99.90
2893;DHT22;1456;51.840;12.184;2023-03-22T07:07:13;11.20;99.90
2893;DHT22;1456;51.840;12.184;2023-03-22T07:09:39;11.10;99.90
2893;DHT22;1456;51.840;12.184;2023-03-22T07:14:35;11.00;99.90
2893;DHT22;1456;51.840;12.184;2023-03-22T07:17:03;10.80;99.90
2893;DHT22;1456;51.840;12.184;2023-03-22T07:19:29;10.70;99.90
2893;DHT22;1456;51.840;12.184;2023-03-22T07:21:57;10.60;99.90
2893;DHT22;1456;51.840;12.184;2023-03-22T07:24:23;10.70;99.90
2893;DHT22;1456;51.840;12.184;2023-03-22T07:26:49;10.70;99.90
2893;DHT22;1456;51.840;12.184;2023-03-22T07:29:15;10.80;99.90
2893;DHT22;1456;51.840;12.184;2023-03-22T07:31:41;10.90;99.90
2893;DHT22;1456;51.840;12.184;2023-03-22T07:34:07;10.90;99.90
2893;DHT22;1456;51.840;12.184;2023-03-22T07:36:32;11.00;99.90
2893;DHT22;1456;51.840;12.184;2023-03-22T07:38:58;11.00;99.90
2893;DHT22;1456;51.840;12.184;2023-03-22T07:41:23;11.00;99.90
2893;DHT22;1456;51.840;12.184;2023-03-22T07:43:52;11.00;99.90
2893;DHT22;1456;51.840;12.184;2023-03-22T07:46:17;10.90;99.90
2893;DHT22;1456;51.840;12.184;2023-03-22T07:48:45;11.00;99.90
2893;DHT22;1456;51.840;12.184;2023-03-22T07:51:10;11.10;99.90
2893;DHT22;1456;51.840;12.184;2023-03-22T07:53:37;11.30;99.90
2893;DHT22;1456;51.840;12.184;2023-03-22T07:56:03;11.50;99.90
2893;DHT22;1456;51.840;12.184;2023-03-22T07:58:29;11.60;99.90
2893;DHT22;1456;51.840;12.184;2023-03-22T08:00:54;11.80;99.90
2893;DHT22;1456;51.840;12.184;2023-03-22T08:03:21;11.90;99.90
2893;DHT22;1456;51.840;12.184;2023-03-22T08:05:47;12.00;99.90
2893;DHT22;1456;51.840;12.184;2023-03-22T08:08:13;12.20;99.90
2893;DHT22;1456;51.840;12.184;2023-03-22T08:10:41;12.40;99.90
2893;DHT22;1456;51.840;12.184;2023-03-22T08:13:07;12.50;99.90
2893;DHT22;1456;51.840;12.184;2023-03-22T08:15:33;12.70;99.90
2893;DHT22;1456;51.840;12.184;2023-03-22T08:17:59;12.80;99.90
2893;DHT22;1456;51.840;12.184;2023-03-22T08:20:24;12.90;99.90
2893;DHT22;1456;51.840;12.184;2023-03-22T08:22:52;13.00;99.90
2893;DHT22;1456;51.840;12.184;2023-03-22T08:25:17;13.20;99.90
2893;DHT22;1456;51.840;12.184;2023-03-22T08:27:44;13.20;99.90
2893;DHT22;1456;51.840;12.184;2023-03-22T08:30:11;13.40;99.90
2893;DHT22;1456;51.840;12.184;2023-03-22T08:32:39;13.50;99.90
2893;DHT22;1456;51.840;12.184;2023-03-22T08:35:05;13.50;99.90
2893;DHT22;1456;51.840;12.184;2023-03-22T08:37:31;13.30;99.90
2893;DHT22;1456;51.840;12.184;2023-03-22T08:39:56;13.20;99.90
2893;DHT22;1456;51.840;12.184;2023-03-22T08:42:23;13.30;99.90
2893;DHT22;1456;51.840;12.184;2023-03-22T08:44:48;13.40;99.90
2893;DHT22;1456;51.840;12.184;2023-03-22T08:47:17;13.60;99.90
2893;DHT22;1456;51.840;12.184;2023-03-22T08:49:42;13.80;99.90
2893;DHT22;1456;51.840;12.184;2023-03-22T08:52:08;14.00;99.90
2893;DHT22;1456;51.840;12.184;2023-03-22T08:54:33;14.10;99.90
2893;DHT22;1456;51.840;12.184;2023-03-22T08:57:00;14.10;99.90
2893;DHT22;1456;51.840;12.184;2023-03-22T08:59:27;14.20;99.90
2893;DHT22;1456;51.840;12.184;2023-03-22T09:01:53;14.30;99.90
2893;DHT22;1456;51.840;12.184;2023-03-22T09:04:20;14.40;99.90
2893;DHT22;1456;51.840;12.184;2023-03-22T09:06:48;14.50;99.90
2893;DHT22;1456;51.840;12.184;2023-03-22T09:09:13;14.70;99.90
2893;DHT22;1456;51.840;12.184;2023-03-22T09:11:39;14.70;99.90
2893;DHT22;1456;51.840;12.184;2023-03-22T09:14:07;14.70;99.90
2893;DHT22;1456;51.840;12.184;2023-03-22T09:16:34;14.80;99.90
2893;DHT22;1456;51.840;12.184;2023-03-22T09:19:01;15.10;99.90
2893;DHT22;1456;51.840;12.184;2023-03-22T09:21:27;15.10;99.90
2893;DHT22;1456;51.840;12.184;2023-03-22T09:23:56;14.90;99.90
2893;DHT22;1456;51.840;12.184;2023-03-22T09:26:23;14.70;99.90
2893;DHT22;1456;51.840;12.184;2023-03-22T09:28:51;14.70;99.90
2893;DHT22;1456;51.840;12.184;2023-03-22T09:31:18;14.50;99.90
2893;DHT22;1456;51.840;12.184;2023-03-22T09:33:44;14.50;99.90
2893;DHT22;1456;51.840;12.184;2023-03-22T09:36:10;14.70;99.90
2893;DHT22;1456;51.840;12.184;2023-03-22T09:38:39;15.10;99.90
2893;DHT22;1456;51.840;12.184;2023-03-22T09:41:07;15.20;99.90
2893;DHT22;1456;51.840;12.184;2023-03-22T09:43:41;15.40;99.90
2893;DHT22;1456;51.840;12.184;2023-03-22T09:46:11;15.30;99.90
2893;DHT22;1456;51.840;12.184;2023-03-22T09:48:38;15.50;99.90
2893;DHT22;1456;51.840;12.184;2023-03-22T09:51:06;15.80;99.90
2893;DHT22;1456;51.840;12.184;2023-03-22T09:53:40;16.00;99.90
2893;DHT22;1456;51.840;12.184;2023-03-22T09:56:09;16.30;99.90
2893;DHT22;1456;51.840;12.184;2023-03-22T09:58:42;16.50;99.90
2893;DHT22;1456;51.840;12.184;2023-03-22T10:06:24;16.70;99.90
2893;DHT22;1456;51.840;12.184;2023-03-22T10:08:58;16.70;99.90
2893;DHT22;1456;51.840;12.184;2023-03-22T10:11:48;16.80;99.90
2893;DHT22;1456;51.840;12.184;2023-03-22T10:16:47;16.60;99.90
2893;DHT22;1456;51.840;12.184;2023-03-22T10:19:17;17.00;99.90
2893;DHT22;1456;51.840;12.184;2023-03-22T10:21:44;17.50;99.90
2893;DHT22;1456;51.840;12.184;2023-03-22T10:24:54;18.00;99.70
2893;DHT22;1456;51.840;12.184;2023-03-22T10:27:00;17.80;98.90
2893;DHT22;1456;51.840;12.184;2023-03-22T10:30:00;17.80;98.80
2893;DHT22;1456;51.840;12.184;2023-03-22T10:32:21;17.80;98.80
2893;DHT22;1456;51.840;12.184;2023-03-22T10:34:49;18.30;99.20
2893;DHT22;1456;51.840;12.184;2023-03-22T10:37:23;18.30;98.20
2893;DHT22;1456;51.840;12.184;2023-03-22T10:39:51;18.40;98.20
2893;DHT22;1456;51.840;12.184;2023-03-22T10:42:22;18.40;98.10
2893;DHT22;1456;51.840;12.184;2023-03-22T10:44:59;18.30;97.90
2893;DHT22;1456;51.840;12.184;2023-03-22T10:49:57;18.70;97.30
2893;DHT22;1456;51.840;12.184;2023-03-22T10:54:51;18.40;97.40
2893;DHT22;1456;51.840;12.184;2023-03-22T10:57:17;18.50;96.90
2893;DHT22;1456;51.840;12.184;2023-03-22T10:59:47;18.40;96.70
2893;DHT22;1456;51.840;12.184;2023-03-22T11:04:50;18.80;97.00
2893;DHT22;1456;51.840;12.184;2023-03-22T11:12:33;18.30;96.20
2893;DHT22;1456;51.840;12.184;2023-03-22T11:14:59;18.30;96.70
2893;DHT22;1456;51.840;12.184;2023-03-22T11:17:25;18.20;96.70
2893;DHT22;1456;51.840;12.184;2023-03-22T11:24:48;17.60;96.90
2893;DHT22;1456;51.840;12.184;2023-03-22T11:29:49;17.30;98.20
2893;DHT22;1456;51.840;12.184;2023-03-22T11:32:28;17.60;98.20
2893;DHT22;1456;51.840;12.184;2023-03-22T11:35:04;18.60;97.90
2893;DHT22;1456;51.840;12.184;2023-03-22T11:37:39;19.60;95.80
2893;DHT22;1456;51.840;12.184;2023-03-22T11:40:05;19.60;95.40
2893;DHT22;1456;51.840;12.184;2023-03-22T11:42:39;19.30;95.30
2893;DHT22;1456;51.840;12.184;2023-03-22T11:45:05;19.40;95.60
2893;DHT22;1456;51.840;12.184;2023-03-22T11:47:33;19.30;95.00
2893;DHT22;1456;51.840;12.184;2023-03-22T11:50:03;19.30;95.00
2893;DHT22;1456;51.840;12.184;2023-03-22T11:52:33;19.90;94.10
2893;DHT22;1456;51.840;12.184;2023-03-22T11:55:00;20.20;93.40
2893;DHT22;1456;51.840;12.184;2023-03-22T11:57:27;20.90;93.10
2893;DHT22;1456;51.840;12.184;2023-03-22T12:02:27;21.20;91.40
2893;DHT22;1456;51.840;12.184;2023-03-22T12:05:02;21.00;92.60
2893;DHT22;1456;51.840;12.184;2023-03-22T12:07:31;21.20;91.60
2893;DHT22;1456;51.840;12.184;2023-03-22T12:10:06;21.70;91.90
2893;DHT22;1456;51.840;12.184;2023-03-22T12:12:39;22.70;92.00
2893;DHT22;1456;51.840;12.184;2023-03-22T12:17:35;21.90;90.00
2893;DHT22;1456;51.840;12.184;2023-03-22T12:20:04;21.60;90.10
2893;DHT22;1456;51.840;12.184;2023-03-22T12:22:33;21.80;89.50
2893;DHT22;1456;51.840;12.184;2023-03-22T12:24:59;22.10;87.90
2893;DHT22;1456;51.840;12.184;2023-03-22T12:27:30;21.50;86.80
2893;DHT22;1456;51.840;12.184;2023-03-22T12:30:01;21.20;87.90
2893;DHT22;1456;51.840;12.184;2023-03-22T12:32:33;21.60;88.50
2893;DHT22;1456;51.840;12.184;2023-03-22T12:35:00;22.50;89.40
2893;DHT22;1456;51.840;12.184;2023-03-22T12:37:29;23.40;85.60
2893;DHT22;1456;51.840;12.184;2023-03-22T12:39:58;23.10;83.20
2893;DHT22;1456;51.840;12.184;2023-03-22T12:42:35;22.60;82.30
2893;DHT22;1456;51.840;12.184;2023-03-22T12:45:23;22.50;83.20
2893;DHT22;1456;51.840;12.184;2023-03-22T12:47:51;22.50;84.90
2893;DHT22;1456;51.840;12.184;2023-03-22T12:53:15;22.80;84.10
2893;DHT22;1456;51.840;12.184;2023-03-22T12:55:41;23.10;83.10
2893;DHT22;1456;51.840;12.184;2023-03-22T12:58:09;23.00;81.70
2893;DHT22;1456;51.840;12.184;2023-03-22T13:00:39;23.00;82.80
2893;DHT22;1456;51.840;12.184;2023-03-22T13:03:16;22.90;81.20
2893;DHT22;1456;51.840;12.184;2023-03-22T13:05:45;23.10;80.90
2893;DHT22;1456;51.840;12.184;2023-03-22T13:08:22;23.10;82.10
2893;DHT22;1456;51.840;12.184;2023-03-22T13:10:56;23.50;83.30
2893;DHT22;1456;51.840;12.184;2023-03-22T13:18:36;22.10;84.10
2893;DHT22;1456;51.840;12.184;2023-03-22T13:21:12;23.00;84.50
2893;DHT22;1456;51.840;12.184;2023-03-22T13:24:00;24.00;81.40
2893;DHT22;1456;51.840;12.184;2023-03-22T13:27:00;23.50;81.00
2893;DHT22;1456;51.840;12.184;2023-03-22T13:29:21;21.80;81.50
2893;DHT22;1456;51.840;12.184;2023-03-22T13:31:58;20.50;85.70
2893;DHT22;1456;51.840;12.184;2023-03-22T13:37:32;19.30;88.20
2893;DHT22;1456;51.840;12.184;2023-03-22T13:40:18;19.50;89.40
2893;DHT22;1456;51.840;12.184;2023-03-22T13:42:52;20.90;88.00
2893;DHT22;1456;51.840;12.184;2023-03-22T13:45:29;22.50;86.90
2893;DHT22;1456;51.840;12.184;2023-03-22T13:48:10;23.90;84.10
2893;DHT22;1456;51.840;12.184;2023-03-22T13:50:36;25.40;81.60
2893;DHT22;1456;51.840;12.184;2023-03-22T13:53:05;25.20;78.60
2893;DHT22;1456;51.840;12.184;2023-03-22T14:01:02;25.90;73.70
2893;DHT22;1456;51.840;12.184;2023-03-22T14:03:34;26.20;73.90
2893;DHT22;1456;51.840;12.184;2023-03-22T14:06:06;27.20;71.50
2893;DHT22;1456;51.840;12.184;2023-03-22T14:08:35;27.90;70.80
2893;DHT22;1456;51.840;12.184;2023-03-22T14:11:09;27.30;68.10
2893;DHT22;1456;51.840;12.184;2023-03-22T14:13:43;26.20;68.80
2893;DHT22;1456;51.840;12.184;2023-03-22T14:16:18;25.70;70.30
2893;DHT22;1456;51.840;12.184;2023-03-22T14:21:20;25.10;73.40
2893;DHT22;1456;51.840;12.184;2023-03-22T14:23:50;25.20;72.50
2893;DHT22;1456;51.840;12.184;2023-03-22T14:26:25;25.00;77.40
2893;DHT22;1456;51.840;12.184;2023-03-22T14:28:51;25.50;75.60
2893;DHT22;1456;51.840;12.184;2023-03-22T14:31:24;26.10;73.00
2893;DHT22;1456;51.840;12.184;2023-03-22T14:33:53;25.70;68.60
2893;DHT22;1456;51.840;12.184;2023-03-22T14:36:20;25.00;69.50
2893;DHT22;1456;51.840;12.184;2023-03-22T14:38:47;24.20;72.10
2893;DHT22;1456;51.840;12.184;2023-03-22T14:41:16;22.90;74.90
2893;DHT22;1456;51.840;12.184;2023-03-22T14:43:44;23.20;74.30
2893;DHT22;1456;51.840;12.184;2023-03-22T14:46:21;23.10;74.00
2893;DHT22;1456;51.840;12.184;2023-03-22T14:48:48;23.00;74.60
2893;DHT22;1456;51.840;12.184;2023-03-22T14:51:16;23.00;74.20
2893;DHT22;1456;51.840;12.184;2023-03-22T14:53:46;22.80;74.90
2893;DHT22;1456;51.840;12.184;2023-03-22T14:56:29;22.40;73.60
2893;DHT22;1456;51.840;12.184;2023-03-22T14:59:01;21.70;75.30
2893;DHT22;1456;51.840;12.184;2023-03-22T15:01:38;20.60;75.50
2893;DHT22;1456;51.840;12.184;2023-03-22T15:04:06;19.70;78.40
2893;DHT22;1456;51.840;12.184;2023-03-22T15:06:33;19.10;78.60
2893;DHT22;1456;51.840;12.184;2023-03-22T15:09:09;18.80;79.90
2893;DHT22;1456;51.840;12.184;2023-03-22T15:11:36;19.00;82.60
2893;DHT22;1456;51.840;12.184;2023-03-22T15:14:04;19.50;81.60
2893;DHT22;1456;51.840;12.184;2023-03-22T15:16:32;19.90;80.60
2893;DHT22;1456;51.840;12.184;2023-03-22T15:19:00;19.80;80.50
2893;DHT22;1456;51.840;12.184;2023-03-22T15:21:29;19.80;80.70
2893;DHT22;1456;51.840;12.184;2023-03-22T15:23:55;19.80;81.40
2893;DHT22;1456;51.840;12.184;2023-03-22T15:26:25;19.60;80.80
2893;DHT22;1456;51.840;12.184;2023-03-22T15:28:56;19.30;81.30
2893;DHT22;1456;51.840;12.184;2023-03-22T15:31:27;19.00;82.70
2893;DHT22;1456;51.840;12.184;2023-03-22T15:33:57;18.60;83.20
2893;DHT22;1456;51.840;12.184;2023-03-22T15:36:31;18.20;84.40
2893;DHT22;1456;51.840;12.184;2023-03-22T15:39:01;18.00;85.80
2893;DHT22;1456;51.840;12.184;2023-03-22T15:41:37;17.60;86.40
2893;DHT22;1456;51.840;12.184;2023-03-22T15:44:14;17.50;87.40
2893;DHT22;1456;51.840;12.184;2023-03-22T15:51:56;17.50;89.50
2893;DHT22;1456;51.840;12.184;2023-03-22T15:54:29;17.40;89.50
2893;DHT22;1456;51.840;12.184;2023-03-22T15:57:06;17.40;90.10
2893;DHT22;1456;51.840;12.184;2023-03-22T15:59:45;17.30;89.70
2893;DHT22;1456;51.840;12.184;2023-03-22T16:02:24;17.20;89.30
2893;DHT22;1456;51.840;12.184;2023-03-22T16:04:58;17.20;89.50
2893;DHT22;1456;51.840;12.184;2023-03-22T16:07:27;17.10;90.10
2893;DHT22;1456;51.840;12.184;2023-03-22T16:10:04;17.10;89.50
2893;DHT22;1456;51.840;12.184;2023-03-22T16:12:31;17.00;90.40
2893;DHT22;1456;51.840;12.184;2023-03-22T16:14:57;17.00;89.50
2893;DHT22;1456;51.840;12.184;2023-03-22T16:17:31;17.00;89.70
2893;DHT22;1456;51.840;12.184;2023-03-22T16:19:58;17.00;88.50
2893;DHT22;1456;51.840;12.184;2023-03-22T16:22:24;16.90;89.00
2893;DHT22;1456;51.840;12.184;2023-03-22T16:24:54;16.90;89.30
2893;DHT22;1456;51.840;12.184;2023-03-22T16:27:24;16.80;89.90
2893;DHT22;1456;51.840;12.184;2023-03-22T16:29:51;16.80;90.50
2893;DHT22;1456;51.840;12.184;2023-03-22T16:32:24;16.80;90.00
2893;DHT22;1456;51.840;12.184;2023-03-22T16:34:51;16.70;90.10
2893;DHT22;1456;51.840;12.184;2023-03-22T16:37:18;16.60;91.00
2893;DHT22;1456;51.840;12.184;2023-03-22T16:39:46;16.60;90.60
2893;DHT22;1456;51.840;12.184;2023-03-22T16:42:16;16.60;91.10
2893;DHT22;1456;51.840;12.184;2023-03-22T16:44:43;16.60;91.60
2893;DHT22;1456;51.840;12.184;2023-03-22T16:47:14;16.60;91.50
2893;DHT22;1456;51.840;12.184;2023-03-22T16:49:42;16.50;91.20
2893;DHT22;1456;51.840;12.184;2023-03-22T16:52:15;16.40;91.20
2893;DHT22;1456;51.840;12.184;2023-03-22T16:54:45;16.40;91.30
2893;DHT22;1456;51.840;12.184;2023-03-22T16:57:17;16.30;91.50
2893;DHT22;1456;51.840;12.184;2023-03-22T16:59:43;16.30;91.70
2893;DHT22;1456;51.840;12.184;2023-03-22T17:02:19;16.20;91.10
2893;DHT22;1456;51.840;12.184;2023-03-22T17:04:46;16.20;91.20
2893;DHT22;1456;51.840;12.184;2023-03-22T17:07:17;15.90;90.80
2893;DHT22;1456;51.840;12.184;2023-03-22T17:09:44;15.80;91.10
2893;DHT22;1456;51.840;12.184;2023-03-22T17:12:17;15.70;91.50
2893;DHT22;1456;51.840;12.184;2023-03-22T17:14:44;15.60;91.20
2893;DHT22;1456;51.840;12.184;2023-03-22T17:17:10;15.50;91.60
2893;DHT22;1456;51.840;12.184;2023-03-22T17:19:37;15.50;91.70
2893;DHT22;1456;51.840;12.184;2023-03-22T17:22:03;15.40;91.10
2893;DHT22;1456;51.840;12.184;2023-03-22T17:24:33;15.40;91.50
2893;DHT22;1456;51.840;12.184;2023-03-22T17:27:04;15.40;91.50
2893;DHT22;1456;51.840;12.184;2023-03-22T17:29:30;15.30;91.80
2893;DHT22;1456;51.840;12.184;2023-03-22T17:31:56;15.30;91.40
2893;DHT22;1456;51.840;12.184;2023-03-22T17:34:22;15.30;91.70
2893;DHT22;1456;51.840;12.184;2023-03-22T17:39:18;15.30;92.10
2893;DHT22;1456;51.840;12.184;2023-03-22T17:41:44;15.20;93.90
2893;DHT22;1456;51.840;12.184;2023-03-22T17:44:10;14.90;94.80
2893;DHT22;1456;51.840;12.184;2023-03-22T17:46:37;14.60;96.40
2893;DHT22;1456;51.840;12.184;2023-03-22T17:49:02;14.20;96.90